createdAt,value
2018-03-11T00:02:10.707Z,75.92
2018-03-11T00:04:39.056Z,76.00
2018-03-11T00:07:07.476Z,75.95
2018-03-11T00:09:35.870Z,76.26
2018-03-11T00:12:04.210Z,76.21
2018-03-11T00:14:32.549Z,76.11
2018-03-11T00:17:00.939Z,76.25
2018-03-11T00:19:29.268Z,76.51
2018-03-11T00:21:57.580Z,76.45
2018-03-11T00:24:25.914Z,76.29
2018-03-11T00:26:54.519Z,76.23
2018-03-11T00:29:22.858Z,76.14
2018-03-11T00:31:51.219Z,76.38
2018-03-11T00:34:19.564Z,76.21
2018-03-11T00:36:47.886Z,76.05
2018-03-11T00:39:20.236Z,75.94
2018-03-11T00:41:48.553Z,75.90
2018-03-11T00:44:16.940Z,75.92
2018-03-11T00:46:50.891Z,75.92
2018-03-11T00:49:19.218Z,76.03
2018-03-11T00:51:47.542Z,76.04
2018-03-11T00:54:16.917Z,76.09
2018-03-11T00:56:45.232Z,76.18
2018-03-11T00:59:13.561Z,76.20
2018-03-11T01:01:41.932Z,76.14
2018-03-11T01:04:10.344Z,76.05
2018-03-11T01:06:38.701Z,76.05
2018-03-11T01:09:07.038Z,75.96
2018-03-11T01:11:35.353Z,75.91
2018-03-11T01:14:03.697Z,75.95
2018-03-11T01:16:32.019Z,75.96
2018-03-11T01:19:00.357Z,76.14
2018-03-11T01:21:28.754Z,76.10
2018-03-11T01:23:57.105Z,76.15
2018-03-11T01:26:25.428Z,76.23
2018-03-11T01:28:53.766Z,76.35
2018-03-11T01:31:22.119Z,76.25
2018-03-11T01:33:50.442Z,76.06
2018-03-11T01:36:18.774Z,76.31
2018-03-11T01:38:47.122Z,76.25
2018-03-11T01:41:15.486Z,76.51
2018-03-11T01:43:44.116Z,76.06
2018-03-11T01:46:12.453Z,76.26
2018-03-11T01:48:40.786Z,76.33
2018-03-11T01:51:09.123Z,76.40
2018-03-11T01:53:37.488Z,76.76
2018-03-11T01:56:06.174Z,76.72
2018-03-11T01:58:34.493Z,76.93
2018-03-11T02:01:03.577Z,77.00
2018-03-11T02:03:31.912Z,76.84
2018-03-11T02:06:00.253Z,76.81
2018-03-11T02:08:28.602Z,76.81
2018-03-11T02:10:56.934Z,76.58
2018-03-11T02:13:25.282Z,76.58
2018-03-11T02:15:53.614Z,76.40
2018-03-11T02:18:22.025Z,76.51
2018-03-11T02:20:50.414Z,76.70
2018-03-11T02:23:18.740Z,76.74
2018-03-11T02:25:47.098Z,77.11
2018-03-11T02:28:15.425Z,77.27
2018-03-11T02:30:43.763Z,77.18
2018-03-11T02:33:12.101Z,77.28
2018-03-11T02:35:40.482Z,77.27
2018-03-11T02:38:08.964Z,77.53
2018-03-11T02:40:37.294Z,77.84
2018-03-11T02:43:05.639Z,77.89
2018-03-11T02:45:33.970Z,78.17
2018-03-11T02:48:02.297Z,78.15
2018-03-11T02:50:30.628Z,78.17
2018-03-11T02:52:58.962Z,78.06
2018-03-11T02:55:27.332Z,78.11
2018-03-11T02:57:55.703Z,78.33
2018-03-11T03:00:24.023Z,78.39
2018-03-11T03:02:52.890Z,78.35
2018-03-11T03:05:21.217Z,78.29
2018-03-11T03:07:49.573Z,78.44
2018-03-11T03:10:17.895Z,78.58
2018-03-11T03:12:46.229Z,78.43
2018-03-11T03:15:14.548Z,78.56
2018-03-11T03:17:42.894Z,78.45
2018-03-11T03:20:11.214Z,78.65
2018-03-11T03:22:39.557Z,78.66
2018-03-11T03:25:07.877Z,78.83
2018-03-11T03:27:36.212Z,78.92
2018-03-11T03:30:04.543Z,78.77
2018-03-11T03:32:32.864Z,78.89
2018-03-11T03:35:01.194Z,79.14
2018-03-11T03:37:29.513Z,79.12
2018-03-11T03:39:57.850Z,79.13
2018-03-11T03:42:26.203Z,79.01
2018-03-11T03:44:54.535Z,78.91
2018-03-11T03:47:22.924Z,78.82
2018-03-11T03:49:51.316Z,78.83
2018-03-11T03:52:19.711Z,78.83
2018-03-11T03:54:48.049Z,78.83
2018-03-11T03:57:16.428Z,78.91
2018-03-11T03:59:44.752Z,78.89
2018-03-11T04:02:13.181Z,78.82
2018-03-11T04:04:41.515Z,78.64
2018-03-11T04:07:09.954Z,78.85
2018-03-11T04:09:38.488Z,79.10
2018-03-11T04:12:06.784Z,79.07
2018-03-11T04:14:35.118Z,79.20
2018-03-11T04:17:03.436Z,79.19
2018-03-11T04:19:31.770Z,79.23
2018-03-11T04:22:00.125Z,79.34
2018-03-11T04:24:29.229Z,79.31
2018-03-11T04:26:57.932Z,79.16
2018-03-11T04:29:26.309Z,79.16
2018-03-11T04:31:54.661Z,79.27
2018-03-11T04:34:22.992Z,79.64
2018-03-11T04:36:51.335Z,79.66
2018-03-11T04:39:19.644Z,79.66
2018-03-11T04:41:47.985Z,79.79
2018-03-11T04:44:16.933Z,79.87
2018-03-11T04:46:45.262Z,80.18
2018-03-11T04:49:13.571Z,80.45
2018-03-11T04:51:41.926Z,80.92
2018-03-11T04:54:10.235Z,81.03
2018-03-11T04:56:38.559Z,81.31
2018-03-11T04:59:07.169Z,81.52
2018-03-11T05:01:35.496Z,81.67
2018-03-11T05:04:03.816Z,81.54
2018-03-11T05:06:32.150Z,81.55
2018-03-11T05:09:00.549Z,81.42
2018-03-11T05:11:28.885Z,81.56
2018-03-11T05:13:57.214Z,81.68
2018-03-11T05:16:25.819Z,81.30
2018-03-11T05:18:54.264Z,80.94
2018-03-11T05:21:22.595Z,81.05
2018-03-11T05:23:51.521Z,80.82
2018-03-11T05:26:19.854Z,80.60
2018-03-11T05:28:48.298Z,80.51
2018-03-11T05:31:17.512Z,80.32
2018-03-11T05:33:45.900Z,80.25
2018-03-11T05:36:14.289Z,80.40
2018-03-11T05:38:42.628Z,80.42
2018-03-11T05:41:10.952Z,80.52
2018-03-11T05:43:39.361Z,80.23
2018-03-11T05:46:07.698Z,80.40
2018-03-11T05:48:36.020Z,80.22
2018-03-11T05:51:04.438Z,80.10
2018-03-11T05:53:32.827Z,80.01
2018-03-11T05:56:01.163Z,79.91
2018-03-11T05:58:29.489Z,80.09
2018-03-11T06:00:57.824Z,80.10
2018-03-11T06:03:26.147Z,80.17
2018-03-11T06:05:54.493Z,80.20
2018-03-11T06:08:22.894Z,80.20
2018-03-11T06:10:51.223Z,79.84
2018-03-11T06:13:19.715Z,79.74
2018-03-11T06:15:48.035Z,79.83
2018-03-11T06:18:16.362Z,79.62
2018-03-11T06:20:44.694Z,79.53
2018-03-11T06:23:13.108Z,79.60
2018-03-11T06:25:41.518Z,79.52
2018-03-11T06:28:09.874Z,79.41
2018-03-11T06:30:38.228Z,79.17
2018-03-11T06:33:07.093Z,78.97
2018-03-11T06:35:35.441Z,79.05
2018-03-11T06:38:03.776Z,78.70
2018-03-11T06:40:33.231Z,78.64
2018-03-11T06:43:01.570Z,78.47
2018-03-11T06:45:29.900Z,78.29
2018-03-11T06:47:58.264Z,78.22
2018-03-11T06:50:26.731Z,78.20
2018-03-11T06:52:55.169Z,78.09
2018-03-11T06:55:23.686Z,78.00
2018-03-11T06:57:52.071Z,78.22
2018-03-11T07:00:20.424Z,78.12
2018-03-11T07:02:49.848Z,78.02
2018-03-11T07:05:18.182Z,77.88
2018-03-11T07:07:46.706Z,77.73
2018-03-11T07:10:15.143Z,77.48
2018-03-11T07:12:43.481Z,77.75
2018-03-11T07:15:11.811Z,77.34
2018-03-11T07:17:40.142Z,76.98
2018-03-11T07:20:10.184Z,76.68
2018-03-11T07:22:38.786Z,76.52
2018-03-11T07:25:07.197Z,75.77
2018-03-11T07:27:35.515Z,75.70
2018-03-11T07:30:03.882Z,74.82
2018-03-11T07:32:32.225Z,73.67
2018-03-11T07:35:00.559Z,73.22
2018-03-11T07:37:28.915Z,72.93
2018-03-11T07:39:57.217Z,72.83
2018-03-11T07:42:25.553Z,73.47
2018-03-11T07:44:53.904Z,72.42
2018-03-11T07:47:23.090Z,71.72
2018-03-11T07:49:52.142Z,70.78
2018-03-11T07:52:20.491Z,70.97
2018-03-11T07:54:48.818Z,71.21
2018-03-11T07:57:17.133Z,71.55
2018-03-11T07:59:45.455Z,71.12
2018-03-11T08:02:13.818Z,69.86
2018-03-11T08:04:42.176Z,69.73
2018-03-11T08:07:10.569Z,69.68
2018-03-11T08:09:38.933Z,69.49
2018-03-11T08:12:07.250Z,69.37
2018-03-11T08:14:35.622Z,69.18
2018-03-11T08:17:03.942Z,69.22
2018-03-11T08:19:32.303Z,68.50
2018-03-11T08:22:00.709Z,68.77
2018-03-11T08:24:29.113Z,69.00
2018-03-11T08:26:57.444Z,68.57
2018-03-11T08:29:25.834Z,68.40
2018-03-11T08:31:54.277Z,66.58
2018-03-11T08:34:22.681Z,62.02
2018-03-11T08:36:51.072Z,59.00
2018-03-11T08:39:19.413Z,57.20
2018-03-11T08:41:47.745Z,52.47
2018-03-11T08:44:16.106Z,51.71
2018-03-11T08:46:44.520Z,52.42
2018-03-11T08:49:12.980Z,51.82
2018-03-11T08:51:41.317Z,53.55
2018-03-11T08:54:09.659Z,54.47
2018-03-11T08:56:37.978Z,54.40
2018-03-11T08:59:06.345Z,54.04
2018-03-11T09:01:34.659Z,53.83
2018-03-11T09:04:02.994Z,52.12
2018-03-11T09:06:31.365Z,50.89
2018-03-11T09:08:59.789Z,53.04
2018-03-11T09:11:28.109Z,51.11
2018-03-11T09:13:56.435Z,49.54
2018-03-11T09:16:24.764Z,50.90
2018-03-11T09:18:53.138Z,49.76
2018-03-11T09:21:21.511Z,50.25
2018-03-11T09:23:50.408Z,49.72
2018-03-11T09:26:18.799Z,49.72
2018-03-11T09:28:47.171Z,48.47
2018-03-11T09:31:15.502Z,47.96
2018-03-11T09:33:43.862Z,47.09
2018-03-11T09:36:12.558Z,49.56
2018-03-11T09:38:40.964Z,50.20
2018-03-11T09:41:09.268Z,49.49
2018-03-11T09:43:37.592Z,48.75
2018-03-11T09:46:06.456Z,50.56
2018-03-11T09:48:34.774Z,49.08
2018-03-11T09:51:03.116Z,49.90
2018-03-11T09:53:31.430Z,48.47
2018-03-11T09:55:59.911Z,49.88
2018-03-11T09:58:28.277Z,50.28
2018-03-11T10:00:56.682Z,51.23
2018-03-11T10:03:25.068Z,51.30
2018-03-11T10:05:53.427Z,50.92
2018-03-11T10:08:21.742Z,52.01
2018-03-11T10:10:50.345Z,50.54
2018-03-11T10:13:18.654Z,50.60
2018-03-11T10:15:47.030Z,51.06
2018-03-11T10:18:15.381Z,50.35
2018-03-11T10:20:43.816Z,50.32
2018-03-11T10:23:12.248Z,50.27
2018-03-11T10:25:40.591Z,51.45
2018-03-11T10:28:08.980Z,51.65
2018-03-11T10:30:37.318Z,52.06
2018-03-11T10:33:05.638Z,50.36
2018-03-11T10:35:34.060Z,49.24
2018-03-11T10:38:02.451Z,48.13
2018-03-11T10:40:30.830Z,47.97
2018-03-11T10:42:59.185Z,48.52
2018-03-11T10:45:27.494Z,48.06
2018-03-11T10:47:55.895Z,48.50
2018-03-11T10:50:24.294Z,48.26
2018-03-11T10:52:52.705Z,47.29
2018-03-11T10:55:21.088Z,46.36
2018-03-11T10:57:49.496Z,44.99
2018-03-11T11:00:17.801Z,46.26
2018-03-11T11:02:46.125Z,47.16
2018-03-11T11:05:14.470Z,46.71
2018-03-11T11:07:42.794Z,47.50
2018-03-11T11:10:13.298Z,47.72
2018-03-11T11:12:41.659Z,46.48
2018-03-11T11:15:09.964Z,45.98
2018-03-11T11:17:38.300Z,44.53
2018-03-11T11:20:06.615Z,45.39
2018-03-11T11:22:34.955Z,44.76
2018-03-11T11:25:03.280Z,41.98
2018-03-11T11:27:31.600Z,44.81
2018-03-11T11:29:59.927Z,46.24
2018-03-11T11:32:28.280Z,46.16
2018-03-11T11:34:56.595Z,45.74
2018-03-11T11:37:24.974Z,45.32
2018-03-11T11:39:53.284Z,45.45
2018-03-11T11:42:21.610Z,47.12
2018-03-11T11:44:50.147Z,48.15
2018-03-11T11:47:18.752Z,50.08
2018-03-11T11:49:47.135Z,49.80
2018-03-11T11:52:15.457Z,48.41
2018-03-11T11:54:43.785Z,46.83
2018-03-11T11:57:12.099Z,45.29
2018-03-11T11:59:41.076Z,45.34
2018-03-11T12:02:09.444Z,44.56
2018-03-11T12:04:38.656Z,45.88
2018-03-11T12:07:07.048Z,45.55
2018-03-11T12:09:35.368Z,45.09
2018-03-11T12:12:03.773Z,43.77
2018-03-11T12:14:32.185Z,42.77
2018-03-11T12:17:00.509Z,42.17
2018-03-11T12:19:28.842Z,40.37
2018-03-11T12:21:57.144Z,40.59
2018-03-11T12:24:25.497Z,40.80
2018-03-11T12:26:53.796Z,40.37
2018-03-11T12:29:22.125Z,40.34
2018-03-11T12:31:50.507Z,39.34
2018-03-11T12:34:18.845Z,40.24
2018-03-11T12:36:47.167Z,39.61
2018-03-11T12:39:15.570Z,39.22
2018-03-11T12:41:43.957Z,40.72
2018-03-11T12:44:12.652Z,41.39
2018-03-11T12:46:41.062Z,41.46
2018-03-11T12:49:09.439Z,42.43
2018-03-11T12:51:37.769Z,42.45
2018-03-11T12:54:06.147Z,43.19
2018-03-11T12:56:34.471Z,42.42
2018-03-11T12:59:02.781Z,43.94
2018-03-11T13:01:31.205Z,43.08
2018-03-11T13:03:59.587Z,42.82
2018-03-11T13:06:27.909Z,43.48
2018-03-11T13:08:56.241Z,42.17
2018-03-11T13:11:24.569Z,41.01
2018-03-11T13:13:52.883Z,40.86
2018-03-11T13:16:21.221Z,42.24
2018-03-11T13:18:49.531Z,42.78
2018-03-11T13:21:17.866Z,43.40
2018-03-11T13:23:46.180Z,43.18
2018-03-11T13:26:14.521Z,42.35
2018-03-11T13:28:52.934Z,42.64
2018-03-11T13:31:21.329Z,42.73
2018-03-11T13:34:01.490Z,42.14
2018-03-11T13:36:29.823Z,42.60
2018-03-11T13:39:10.145Z,42.78
2018-03-11T13:41:38.463Z,42.09
2018-03-11T13:44:06.785Z,41.14
2018-03-11T13:46:46.984Z,40.40
2018-03-11T13:49:15.277Z,41.71
2018-03-11T13:51:55.437Z,41.92
2018-03-11T13:54:24.380Z,41.27
2018-03-11T13:57:04.532Z,39.62
2018-03-11T13:59:32.870Z,39.64
2018-03-11T14:02:01.300Z,40.93
2018-03-11T14:04:29.634Z,42.49
2018-03-11T14:06:57.946Z,42.89
2018-03-11T14:09:26.269Z,43.12
2018-03-11T14:11:54.590Z,43.40
2018-03-11T14:14:22.936Z,43.89
2018-03-11T14:16:51.270Z,44.56
2018-03-11T14:19:19.835Z,45.39
2018-03-11T14:21:48.140Z,46.17
2018-03-11T14:24:16.497Z,46.63
2018-03-11T14:26:44.930Z,47.03
2018-03-11T14:29:13.237Z,47.16
2018-03-11T14:31:41.591Z,47.26
2018-03-11T14:34:09.913Z,47.43
2018-03-11T14:36:38.264Z,48.08
2018-03-11T14:39:06.583Z,48.52
2018-03-11T14:41:34.907Z,48.44
2018-03-11T14:44:03.227Z,48.89
2018-03-11T14:46:31.550Z,49.42
2018-03-11T14:48:59.894Z,49.95
2018-03-11T14:51:28.229Z,50.26
2018-03-11T14:53:56.536Z,50.42
2018-03-11T14:56:24.971Z,50.63
2018-03-11T14:58:53.312Z,50.60
2018-03-11T15:01:21.671Z,50.79
2018-03-11T15:03:50.004Z,50.67
2018-03-11T15:06:18.398Z,50.98
2018-03-11T15:08:46.704Z,51.34
2018-03-11T15:11:15.056Z,51.76
2018-03-11T15:13:43.382Z,52.16
2018-03-11T15:16:12.129Z,52.44
2018-03-11T15:18:40.539Z,52.73
2018-03-11T15:21:08.900Z,52.91
2018-03-11T15:23:37.314Z,53.38
2018-03-11T15:26:05.638Z,53.35
2018-03-11T15:28:33.973Z,53.20
2018-03-11T15:31:02.315Z,53.25
2018-03-11T15:33:30.732Z,53.01
2018-03-11T15:35:59.016Z,53.18
2018-03-11T15:38:27.351Z,53.07
2018-03-11T15:40:55.741Z,53.03
2018-03-11T15:43:24.102Z,52.91
2018-03-11T15:45:52.437Z,53.51
2018-03-11T15:48:20.790Z,53.62
2018-03-11T15:50:49.129Z,53.67
2018-03-11T15:53:17.472Z,53.89
2018-03-11T15:55:45.829Z,54.20
2018-03-11T15:58:14.158Z,54.19
2018-03-11T16:00:42.497Z,54.46
2018-03-11T16:03:10.847Z,54.65
2018-03-11T16:05:39.183Z,55.00
2018-03-11T16:08:07.508Z,55.02
2018-03-11T16:10:35.833Z,55.37
2018-03-11T16:13:04.188Z,55.37
2018-03-11T16:15:32.512Z,55.41
2018-03-11T16:18:00.862Z,55.71
2018-03-11T16:20:29.223Z,55.83
2018-03-11T16:22:57.528Z,55.84
2018-03-11T16:25:25.847Z,56.19
2018-03-11T16:27:54.245Z,56.34
2018-03-11T16:30:22.578Z,56.51
2018-03-11T16:32:50.930Z,56.62
2018-03-11T16:35:19.282Z,56.68
2018-03-11T16:37:47.605Z,56.90
2018-03-11T16:40:15.938Z,57.13
2018-03-11T16:42:44.285Z,57.46
2018-03-11T16:45:13.052Z,57.75
2018-03-11T16:47:41.374Z,57.79
2018-03-11T16:50:09.715Z,57.99
2018-03-11T16:52:38.078Z,58.18
2018-03-11T16:55:06.406Z,58.22
2018-03-11T16:57:34.726Z,58.50
2018-03-11T17:00:03.060Z,58.80
2018-03-11T17:02:31.385Z,58.72
2018-03-11T17:04:59.718Z,58.69
2018-03-11T17:07:28.051Z,58.91
2018-03-11T17:09:56.386Z,59.00
2018-03-11T17:12:24.719Z,59.16
2018-03-11T17:14:53.079Z,59.32
2018-03-11T17:17:21.540Z,59.43
2018-03-11T17:19:50.577Z,59.64
2018-03-11T17:22:18.985Z,59.91
2018-03-11T17:24:47.365Z,60.09
2018-03-11T17:27:15.688Z,60.24
2018-03-11T17:29:44.064Z,60.55
2018-03-11T17:32:12.402Z,60.90
2018-03-11T17:34:40.846Z,61.13
2018-03-11T17:37:09.183Z,61.47
2018-03-11T17:39:37.622Z,61.52
2018-03-11T17:42:05.955Z,61.63
2018-03-11T17:44:34.297Z,61.74
2018-03-11T17:47:02.631Z,61.88
2018-03-11T17:49:30.994Z,62.05
2018-03-11T17:51:59.377Z,62.09
2018-03-11T17:54:27.689Z,62.21
2018-03-11T17:56:56.039Z,62.37
2018-03-11T17:59:24.416Z,62.50
2018-03-11T18:01:52.742Z,62.54
2018-03-11T18:04:21.136Z,62.69
2018-03-11T18:06:49.457Z,62.71
2018-03-11T18:09:17.785Z,62.78
2018-03-11T18:11:46.136Z,62.88
2018-03-11T18:14:14.520Z,63.03
2018-03-11T18:16:42.876Z,62.99
2018-03-11T18:19:11.198Z,63.08
2018-03-11T18:21:39.547Z,63.21
2018-03-11T18:24:07.895Z,63.24
2018-03-11T18:26:37.245Z,63.38
2018-03-11T18:29:05.571Z,63.75
2018-03-11T18:31:33.916Z,63.85
2018-03-11T18:34:02.242Z,63.77
2018-03-11T18:36:30.570Z,63.64
2018-03-11T18:38:58.925Z,63.64
2018-03-11T18:41:27.347Z,63.61
2018-03-11T18:43:55.697Z,63.64
2018-03-11T18:46:24.026Z,63.42
2018-03-11T18:48:52.383Z,63.35
2018-03-11T18:51:20.719Z,63.37
2018-03-11T18:53:49.032Z,63.27
2018-03-11T18:56:17.376Z,63.16
2018-03-11T18:58:45.750Z,63.18
2018-03-11T19:01:14.079Z,63.21
2018-03-11T19:03:42.442Z,63.54
2018-03-11T19:06:10.808Z,63.39
2018-03-11T19:08:39.118Z,63.51
2018-03-11T19:11:07.457Z,63.58
2018-03-11T19:13:35.794Z,63.83
2018-03-11T19:16:04.166Z,63.83
2018-03-11T19:18:32.571Z,63.88
2018-03-11T19:21:00.886Z,64.00
2018-03-11T19:23:29.286Z,63.85
2018-03-11T19:25:57.608Z,64.08
2018-03-11T19:28:25.953Z,64.23
2018-03-11T19:30:54.288Z,64.16
2018-03-11T19:33:22.672Z,64.32
2018-03-11T19:35:51.099Z,64.25
2018-03-11T19:38:19.437Z,64.06
2018-03-11T19:40:47.771Z,64.38
2018-03-11T19:43:16.107Z,64.36
2018-03-11T19:45:44.456Z,64.54
2018-03-11T19:48:12.823Z,64.59
2018-03-11T19:50:41.254Z,64.59
2018-03-11T19:53:09.632Z,64.62
2018-03-11T19:55:38.032Z,64.56
2018-03-11T19:58:06.378Z,64.69
2018-03-11T20:00:34.757Z,64.65
2018-03-11T20:03:03.139Z,64.67
2018-03-11T20:05:31.463Z,64.81
2018-03-11T20:07:59.807Z,64.89
2018-03-11T20:10:28.152Z,64.99
2018-03-11T20:12:56.485Z,65.04
2018-03-11T20:15:24.821Z,65.26
2018-03-11T20:17:53.181Z,65.47
2018-03-11T20:20:21.524Z,65.50
2018-03-11T20:22:50.845Z,65.68
2018-03-11T20:25:19.202Z,65.74
2018-03-11T20:27:47.652Z,65.97
2018-03-11T20:30:16.315Z,66.08
2018-03-11T20:32:44.661Z,66.15
2018-03-11T20:35:12.994Z,66.20
2018-03-11T20:37:41.415Z,66.33
2018-03-11T20:40:13.463Z,66.26
2018-03-11T20:42:41.794Z,66.44
2018-03-11T20:45:11.049Z,66.35
2018-03-11T20:47:39.387Z,66.36
2018-03-11T20:50:07.840Z,66.38
2018-03-11T20:52:36.174Z,66.48
2018-03-11T20:55:04.485Z,66.54
2018-03-11T20:57:32.826Z,66.44
2018-03-11T21:00:01.364Z,66.48
2018-03-11T21:02:29.729Z,66.46
2018-03-11T21:04:58.113Z,66.43
2018-03-11T21:07:26.576Z,66.51
2018-03-11T21:09:54.899Z,66.53
2018-03-11T21:12:23.239Z,66.56
2018-03-11T21:14:51.629Z,66.67
2018-03-11T21:17:19.958Z,66.89
2018-03-11T21:19:48.276Z,66.85
2018-03-11T21:22:16.636Z,66.96
2018-03-11T21:24:44.982Z,67.00
2018-03-11T21:27:13.326Z,67.03
2018-03-11T21:29:41.673Z,67.02
2018-03-11T21:32:10.190Z,67.18
2018-03-11T21:34:38.533Z,67.05
2018-03-11T21:37:06.853Z,67.14
2018-03-11T21:39:35.310Z,67.12
2018-03-11T21:42:03.744Z,67.14
2018-03-11T21:44:32.160Z,66.96
2018-03-11T21:47:00.591Z,67.04
2018-03-11T21:49:28.935Z,67.19
2018-03-11T21:51:57.753Z,67.31
2018-03-11T21:54:26.157Z,67.50
2018-03-11T21:56:54.531Z,67.40
2018-03-11T21:59:22.925Z,67.53
2018-03-11T22:01:51.434Z,67.62
2018-03-11T22:04:19.758Z,67.61
2018-03-11T22:06:48.474Z,67.67
2018-03-11T22:09:16.803Z,67.61
2018-03-11T22:11:45.131Z,67.74
2018-03-11T22:14:13.517Z,67.81
2018-03-11T22:16:41.886Z,67.91
2018-03-11T22:19:10.230Z,68.10
2018-03-11T22:21:38.567Z,68.35
2018-03-11T22:24:06.909Z,68.47
2018-03-11T22:26:35.327Z,68.57
2018-03-11T22:29:03.678Z,68.57
2018-03-11T22:31:31.991Z,68.58
2018-03-11T22:34:07.105Z,68.63
2018-03-11T22:36:36.173Z,68.68
2018-03-11T22:39:04.490Z,68.83
2018-03-11T22:41:32.929Z,68.97
2018-03-11T22:44:01.357Z,69.09
2018-03-11T22:46:29.693Z,69.09
2018-03-11T22:48:58.032Z,69.18
2018-03-11T22:51:26.382Z,69.35
2018-03-11T22:53:54.706Z,69.37
2018-03-11T22:56:23.037Z,69.32
2018-03-11T22:58:51.367Z,69.48
2018-03-11T23:01:19.768Z,69.64
2018-03-11T23:03:48.171Z,69.73
2018-03-11T23:06:16.505Z,69.78
2018-03-11T23:08:44.825Z,69.84
2018-03-11T23:11:13.154Z,70.01
2018-03-11T23:13:41.482Z,69.83
2018-03-11T23:18:49.152Z,70.08
2018-03-11T23:21:17.552Z,70.03
2018-03-11T23:23:45.868Z,70.29
2018-03-11T23:26:14.213Z,70.43
2018-03-11T23:28:42.526Z,70.51
2018-03-11T23:31:10.867Z,70.46
2018-03-11T23:33:39.179Z,70.56
2018-03-11T23:36:07.527Z,70.62
2018-03-11T23:38:35.855Z,70.81
2018-03-11T23:41:04.173Z,70.87
2018-03-11T23:43:32.583Z,70.90
2018-03-11T23:46:00.906Z,70.92
2018-03-11T23:48:29.355Z,71.08
2018-03-11T23:50:57.693Z,71.18
2018-03-11T23:53:26.032Z,71.38
2018-03-11T23:55:54.418Z,71.54
2018-03-11T23:58:22.921Z,71.77
